Hanna, Illinois
Current Conditions -  °F | °C
As of 3:52 PM on Monday 20 Oct 2014 (Local Time) from KMLI Reporting Station
Few Clouds Few Clouds  
Wind Chill: 68°   Ceiling: Unl
Heat Index: 68°   Visibility: 10mi
Dew Point: 43°   Wind: 14mph
Humidity: 40%   Direction: 320°NW
Pressure: 29.92"   Gusts: 23mph
Location:  41.4828°N, 90.1801°W
Report Text: KMLI 202052Z 32012G20KT 10SM FEW055 20/06 A2992 RMK AO2 SLP132 T02000061 55002
Loading
Personal Weather Stations






























Interactive Weather Map
Tropical Storm Tracking
New forecast layout! Learn more

10-Day Weather Forecast

Advertisements
Track Severe Weather on mobile